Time;durP1;ratioP1;P1;durP2;ratioP2;P2;SDS_P1;SDS_P2;PMS_P1;PMS_P2;Temp;Humidity;BMP_temperature;BMP_pressure;BME280_temperature;BME280_humidity;BME280_pressure;Samples;Min_cycle;Max_cycle;Signal;HPM_P1;HPM_P2
2022/10/24 00:02:19;;;;;;;;;;;18.70;99.90;;;;;;5071969;28;19932;-84
2022/10/24 00:04:47;;;;;;;;;;;18.70;99.90;;;;;;5062135;28;19928;-83
2022/10/24 00:07:13;;;;;;;;;;;18.70;99.90;;;;;;5063773;28;19969;-83
2022/10/24 00:09:41;;;;;;;;;;;18.70;99.90;;;;;;5066002;28;19915;-82
2022/10/24 00:12:07;;;;;;;;;;;18.60;99.90;;;;;;5065076;28;19913;-84
2022/10/24 00:14:33;;;;;;;;;;;18.50;99.90;;;;;;5058901;28;19959;-82
2022/10/24 00:16:59;;;;;;;;;;;18.50;99.90;;;;;;5058920;28;19913;-83
2022/10/24 00:19:25;;;;;;;;;;;18.40;99.90;;;;;;5068588;28;19966;-83
2022/10/24 00:21:51;;;;;;;;;;;18.50;99.90;;;;;;5065381;28;19918;-83
2022/10/24 00:24:17;;;;;;;;;;;18.40;99.90;;;;;;5067581;28;19920;-83
2022/10/24 00:26:42;;;;;;;;;;;18.50;99.90;;;;;;5065396;28;19917;-83
2022/10/24 00:29:08;;;;;;;;;;;18.60;99.90;;;;;;5065116;28;19909;-83
2022/10/24 00:31:37;;;;;;;;;;;18.60;99.90;;;;;;5062784;28;21238;-83
2022/10/24 00:34:08;;;;;;;;;;;18.70;99.90;;;;;;5063614;28;19921;-83
2022/10/24 00:36:33;;;;;;;;;;;18.70;99.90;;;;;;5064542;28;19913;-83
2022/10/24 00:38:59;;;;;;;;;;;18.90;99.90;;;;;;5064442;28;19920;-84
2022/10/24 00:41:33;;;;;;;;;;;18.90;99.90;;;;;;5065374;28;19948;-83
2022/10/24 00:44:16;;;;;;;;;;;18.90;99.90;;;;;;5068800;28;19996;-83
2022/10/24 00:46:45;;;;;;;;;;;18.90;99.90;;;;;;5068237;28;19912;-83
2022/10/24 00:49:15;;;;;;;;;;;18.90;99.90;;;;;;5065029;28;19962;-83
2022/10/24 00:51:41;;;;;;;;;;;18.80;99.90;;;;;;5067278;28;19913;-84
2022/10/24 00:54:11;;;;;;;;;;;18.80;99.90;;;;;;5064511;28;19928;-84
2022/10/24 00:56:39;;;;;;;;;;;18.90;99.90;;;;;;5066158;28;19940;-83
2022/10/24 00:59:06;;;;;;;;;;;18.90;99.90;;;;;;5065292;28;19917;-82
2022/10/24 01:01:33;;;;;;;;;;;18.90;99.90;;;;;;5068155;28;19912;-83
2022/10/24 01:03:58;;;;;;;;;;;18.80;99.90;;;;;;5063668;28;19967;-83
2022/10/24 01:06:43;;;;;;;;;;;18.90;99.90;;;;;;5065735;28;19925;-83
2022/10/24 01:09:24;;;;;;;;;;;18.90;99.90;;;;;;5063339;28;19917;-84
2022/10/24 01:12:02;;;;;;;;;;;18.90;99.90;;;;;;5059620;28;19913;-84
2022/10/24 01:14:41;;;;;;;;;;;18.90;99.90;;;;;;5060560;28;19920;-84
2022/10/24 01:17:20;;;;;;;;;;;18.90;99.90;;;;;;5059244;28;19917;-84
2022/10/24 01:19:49;;;;;;;;;;;18.80;99.90;;;;;;5067982;28;19912;-83
2022/10/24 01:22:21;;;;;;;;;;;18.90;99.90;;;;;;5065069;28;19912;-83
2022/10/24 01:25:05;;;;;;;;;;;18.90;99.90;;;;;;5068759;28;19912;-83
2022/10/24 01:27:31;;;;;;;;;;;18.80;99.90;;;;;;5070420;28;19917;-84
2022/10/24 01:30:08;;;;;;;;;;;18.80;99.90;;;;;;5067444;28;19914;-84
2022/10/24 01:32:37;;;;;;;;;;;18.90;99.90;;;;;;5074367;28;19912;-83
2022/10/24 01:35:24;;;;;;;;;;;18.90;99.90;;;;;;5062688;28;19953;-84
2022/10/24 01:38:14;;;;;;;;;;;18.90;99.90;;;;;;5063487;28;19900;-84
2022/10/24 01:40:47;;;;;;;;;;;18.80;99.90;;;;;;5062162;28;21465;-84
2022/10/24 01:43:14;;;;;;;;;;;18.80;99.90;;;;;;5063342;28;19971;-83
2022/10/24 01:45:44;;;;;;;;;;;18.90;99.90;;;;;;5070095;28;19913;-84
2022/10/24 01:48:12;;;;;;;;;;;19.00;99.90;;;;;;5071156;28;19972;-84
2022/10/24 01:50:38;;;;;;;;;;;19.10;99.90;;;;;;5070560;28;19920;-83
2022/10/24 01:53:04;;;;;;;;;;;19.20;99.90;;;;;;5072101;28;19915;-83
2022/10/24 01:55:31;;;;;;;;;;;19.20;99.90;;;;;;5071615;28;19913;-83
2022/10/24 01:57:57;;;;;;;;;;;19.30;99.90;;;;;;5071457;28;19916;-83
2022/10/24 02:00:23;;;;;;;;;;;19.30;99.90;;;;;;5073277;28;19951;-83
2022/10/24 02:02:54;;;;;;;;;;;19.30;99.90;;;;;;5070791;28;19913;-83
2022/10/24 02:05:29;;;;;;;;;;;19.20;99.90;;;;;;5064980;28;19913;-83
2022/10/24 02:07:56;;;;;;;;;;;19.20;99.90;;;;;;5065224;28;19936;-83
2022/10/24 02:10:27;;;;;;;;;;;19.10;99.90;;;;;;5066223;28;19920;-83
2022/10/24 02:12:56;;;;;;;;;;;19.10;99.90;;;;;;5068898;28;19976;-83
2022/10/24 02:15:30;;;;;;;;;;;19.10;99.90;;;;;;5071611;28;19944;-83
2022/10/24 02:17:59;;;;;;;;;;;19.10;99.90;;;;;;5060847;28;19980;-84
2022/10/24 02:20:32;;;;;;;;;;;19.00;99.90;;;;;;5066298;28;19913;-83
2022/10/24 02:23:02;;;;;;;;;;;19.00;99.90;;;;;;5064416;28;19917;-83
2022/10/24 02:25:35;;;;;;;;;;;19.10;99.90;;;;;;5066211;28;19917;-83
2022/10/24 02:28:06;;;;;;;;;;;19.10;99.90;;;;;;5064500;28;19913;-83
2022/10/24 02:30:34;;;;;;;;;;;19.10;99.90;;;;;;5065628;28;19923;-83
2022/10/24 02:33:00;;;;;;;;;;;19.10;99.90;;;;;;5064232;28;19913;-83
2022/10/24 02:35:28;;;;;;;;;;;19.10;99.90;;;;;;5066568;28;19917;-83
2022/10/24 02:37:57;;;;;;;;;;;19.10;99.90;;;;;;5066079;28;19917;-84
2022/10/24 02:40:25;;;;;;;;;;;19.10;99.90;;;;;;5064056;28;19940;-84
2022/10/24 02:42:53;;;;;;;;;;;19.10;99.90;;;;;;5061920;28;20001;-84
2022/10/24 02:45:19;;;;;;;;;;;19.00;99.90;;;;;;5067714;28;21870;-82
2022/10/24 02:47:46;;;;;;;;;;;19.10;99.90;;;;;;5065211;28;19928;-85
2022/10/24 02:50:12;;;;;;;;;;;19.00;99.90;;;;;;5069329;28;19968;-83
2022/10/24 02:52:38;;;;;;;;;;;19.10;99.90;;;;;;5085668;28;19920;-83
2022/10/24 02:55:04;;;;;;;;;;;19.10;99.90;;;;;;5064359;28;19921;-83
2022/10/24 02:57:30;;;;;;;;;;;19.10;99.90;;;;;;5062304;28;19913;-83
2022/10/24 02:59:56;;;;;;;;;;;19.10;99.90;;;;;;5067557;28;19913;-83
2022/10/24 03:02:22;;;;;;;;;;;19.10;99.90;;;;;;5066708;28;19912;-82
2022/10/24 03:04:48;;;;;;;;;;;19.10;99.90;;;;;;5064148;28;19956;-83
2022/10/24 03:07:13;;;;;;;;;;;19.10;99.90;;;;;;5065954;28;19970;-84
2022/10/24 03:09:39;;;;;;;;;;;19.00;99.90;;;;;;5067081;28;20023;-83
2022/10/24 03:12:05;;;;;;;;;;;18.90;99.90;;;;;;5063487;28;19912;-84
2022/10/24 03:14:31;;;;;;;;;;;18.90;99.90;;;;;;5063438;28;19919;-83
2022/10/24 03:16:56;;;;;;;;;;;18.80;99.90;;;;;;5062485;28;19999;-83
2022/10/24 03:19:22;;;;;;;;;;;18.80;99.90;;;;;;5068864;28;19913;-83
2022/10/24 03:21:48;;;;;;;;;;;18.90;99.90;;;;;;5071677;28;19919;-83
2022/10/24 03:24:14;;;;;;;;;;;18.90;99.90;;;;;;5071448;28;19913;-83
2022/10/24 03:26:40;;;;;;;;;;;19.00;99.90;;;;;;5072349;28;19928;-83
2022/10/24 03:29:06;;;;;;;;;;;19.00;99.90;;;;;;5071181;28;19921;-83
2022/10/24 03:31:35;;;;;;;;;;;19.00;99.90;;;;;;5065574;28;19902;-82
2022/10/24 03:34:00;;;;;;;;;;;19.10;99.90;;;;;;5070137;28;19916;-82
2022/10/24 03:36:26;;;;;;;;;;;19.10;99.90;;;;;;5070625;28;19976;-82
2022/10/24 03:38:52;;;;;;;;;;;19.10;99.90;;;;;;5069359;28;19913;-82
2022/10/24 03:41:18;;;;;;;;;;;19.10;99.90;;;;;;5068089;28;19909;-82
2022/10/24 03:43:43;;;;;;;;;;;19.10;99.90;;;;;;5072503;28;19908;-83
2022/10/24 03:46:09;;;;;;;;;;;19.10;99.90;;;;;;5068965;28;19923;-83
2022/10/24 03:48:35;;;;;;;;;;;19.10;99.90;;;;;;5069223;28;19935;-83
2022/10/24 03:51:04;;;;;;;;;;;19.20;99.90;;;;;;5067704;28;19913;-83
2022/10/24 03:53:30;;;;;;;;;;;19.10;99.90;;;;;;5069201;28;20042;-83
2022/10/24 03:55:56;;;;;;;;;;;19.20;99.90;;;;;;5069324;28;19912;-83
2022/10/24 03:58:21;;;;;;;;;;;19.20;99.90;;;;;;5068709;28;19909;-83
2022/10/24 04:00:47;;;;;;;;;;;19.30;99.90;;;;;;5056053;28;19932;-82
2022/10/24 04:03:13;;;;;;;;;;;19.30;99.90;;;;;;5070394;28;19909;-82
2022/10/24 04:05:39;;;;;;;;;;;19.30;99.90;;;;;;5068895;28;19916;-82
2022/10/24 04:08:05;;;;;;;;;;;19.30;99.90;;;;;;5069124;28;19913;-82
2022/10/24 04:10:31;;;;;;;;;;;19.30;99.90;;;;;;5067996;28;19924;-83
2022/10/24 04:12:57;;;;;;;;;;;19.30;99.90;;;;;;5069413;28;19946;-83
2022/10/24 04:15:22;;;;;;;;;;;19.30;99.90;;;;;;5066694;28;19913;-82
2022/10/24 04:17:48;;;;;;;;;;;19.30;99.90;;;;;;5070413;28;19912;-84
2022/10/24 04:20:18;;;;;;;;;;;19.30;99.90;;;;;;5068801;28;19935;-83
2022/10/24 04:22:44;;;;;;;;;;;19.30;99.90;;;;;;5069020;28;19928;-83
2022/10/24 04:25:10;;;;;;;;;;;19.30;99.90;;;;;;5065406;28;19944;-82
2022/10/24 04:27:39;;;;;;;;;;;19.30;99.90;;;;;;5069257;28;20050;-82
2022/10/24 04:30:08;;;;;;;;;;;19.30;99.90;;;;;;5067508;28;19924;-84
2022/10/24 04:32:36;;;;;;;;;;;19.30;99.90;;;;;;5068836;28;19920;-82
2022/10/24 04:35:11;;;;;;;;;;;19.30;99.90;;;;;;5067177;28;19960;-83
2022/10/24 04:37:37;;;;;;;;;;;19.30;99.90;;;;;;5064482;28;19916;-83
2022/10/24 04:40:06;;;;;;;;;;;19.30;99.90;;;;;;5057349;28;19901;-83
2022/10/24 04:42:34;;;;;;;;;;;19.30;99.90;;;;;;5067038;28;19924;-82
2022/10/24 04:45:00;;;;;;;;;;;19.30;99.90;;;;;;5067473;28;20167;-84
2022/10/24 04:47:27;;;;;;;;;;;19.30;99.90;;;;;;5084161;28;19951;-84
2022/10/24 04:49:52;;;;;;;;;;;19.40;99.90;;;;;;5066696;28;19917;-84
2022/10/24 04:52:18;;;;;;;;;;;19.30;99.90;;;;;;5067622;28;20002;-84
2022/10/24 04:54:44;;;;;;;;;;;19.30;99.90;;;;;;5065577;28;19913;-87
2022/10/24 04:57:12;;;;;;;;;;;19.30;99.90;;;;;;5069347;28;19954;-84
2022/10/24 04:59:38;;;;;;;;;;;19.40;99.90;;;;;;5060777;28;19913;-84
2022/10/24 05:02:04;;;;;;;;;;;19.30;99.90;;;;;;5065111;28;19928;-86
2022/10/24 05:04:29;;;;;;;;;;;19.30;99.90;;;;;;5065419;28;20003;-83
2022/10/24 05:06:55;;;;;;;;;;;19.30;99.90;;;;;;5068450;28;19913;-86
2022/10/24 05:09:21;;;;;;;;;;;19.30;99.90;;;;;;5069723;28;19912;-86
2022/10/24 05:11:52;;;;;;;;;;;19.30;99.90;;;;;;5068188;28;19968;-85
2022/10/24 05:14:18;;;;;;;;;;;19.40;99.90;;;;;;5073759;28;19921;-87
2022/10/24 05:16:48;;;;;;;;;;;19.30;99.90;;;;;;5066265;28;19935;-87
2022/10/24 05:19:14;;;;;;;;;;;19.30;99.90;;;;;;5071950;28;19959;-84
2022/10/24 05:21:40;;;;;;;;;;;19.30;99.90;;;;;;5071501;28;19913;-86
2022/10/24 05:24:08;;;;;;;;;;;19.30;99.90;;;;;;5071749;28;19932;-86
2022/10/24 05:26:34;;;;;;;;;;;19.30;99.90;;;;;;5067317;28;19917;-85
2022/10/24 05:29:00;;;;;;;;;;;19.30;99.90;;;;;;5069074;28;19913;-84
2022/10/24 05:31:26;;;;;;;;;;;19.30;99.90;;;;;;5070426;28;19901;-82
2022/10/24 05:33:51;;;;;;;;;;;19.40;99.90;;;;;;5066601;28;19917;-85
2022/10/24 05:36:17;;;;;;;;;;;19.30;99.90;;;;;;5060387;28;19924;-85
2022/10/24 05:38:43;;;;;;;;;;;19.30;99.90;;;;;;5063907;28;19913;-76
2022/10/24 05:41:09;;;;;;;;;;;19.30;99.90;;;;;;5050700;28;19954;-77
2022/10/24 05:43:34;;;;;;;;;;;19.40;99.90;;;;;;5055421;28;19913;-79
2022/10/24 05:46:00;;;;;;;;;;;19.40;99.90;;;;;;5053755;28;19913;-76
2022/10/24 05:48:26;;;;;;;;;;;19.40;99.90;;;;;;5052432;28;20059;-79
2022/10/24 05:50:55;;;;;;;;;;;19.40;99.90;;;;;;5054953;28;19943;-77
2022/10/24 05:53:20;;;;;;;;;;;19.30;99.90;;;;;;5053356;28;19980;-80
2022/10/24 05:55:54;;;;;;;;;;;19.30;99.90;;;;;;5059626;28;19959;-78
2022/10/24 05:58:21;;;;;;;;;;;19.30;99.90;;;;;;5063791;28;20396;-78
2022/10/24 06:00:47;;;;;;;;;;;19.30;99.90;;;;;;5062837;28;19913;-79
2022/10/24 06:03:13;;;;;;;;;;;19.40;99.90;;;;;;5065021;28;19909;-80
2022/10/24 06:05:39;;;;;;;;;;;19.40;99.90;;;;;;5060781;28;19934;-78
2022/10/24 06:08:04;;;;;;;;;;;19.40;99.90;;;;;;5057038;28;20007;-78
2022/10/24 06:10:30;;;;;;;;;;;19.40;99.90;;;;;;5056891;28;19909;-79
2022/10/24 06:12:56;;;;;;;;;;;19.40;99.90;;;;;;5058346;28;19932;-78
2022/10/24 06:15:24;;;;;;;;;;;19.40;99.90;;;;;;5061488;28;19948;-78
2022/10/24 06:17:50;;;;;;;;;;;19.40;99.90;;;;;;5061524;28;19908;-79
2022/10/24 06:20:16;;;;;;;;;;;19.50;99.90;;;;;;5049056;28;19916;-79
2022/10/24 06:22:44;;;;;;;;;;;19.60;99.90;;;;;;5039259;28;19943;-79
2022/10/24 06:25:12;;;;;;;;;;;19.60;99.90;;;;;;5052880;28;19909;-79
2022/10/24 06:27:38;;;;;;;;;;;19.70;99.90;;;;;;5053678;28;20466;-69
2022/10/24 06:30:05;;;;;;;;;;;19.70;99.90;;;;;;5048544;28;19931;-71
2022/10/24 06:32:30;;;;;;;;;;;19.80;99.90;;;;;;5054307;28;19909;-71
2022/10/24 06:34:56;;;;;;;;;;;19.80;99.90;;;;;;5056308;28;19962;-71
2022/10/24 06:37:22;;;;;;;;;;;19.90;99.90;;;;;;5041295;28;19913;-71
2022/10/24 06:39:47;;;;;;;;;;;19.90;99.90;;;;;;5035337;28;20217;-70
2022/10/24 06:42:13;;;;;;;;;;;20.00;99.90;;;;;;5035265;28;19924;-70
2022/10/24 06:44:39;;;;;;;;;;;20.20;99.90;;;;;;5036015;28;19909;-79
2022/10/24 06:47:08;;;;;;;;;;;20.20;99.90;;;;;;5041239;28;20315;-79
2022/10/24 06:49:34;;;;;;;;;;;20.20;99.90;;;;;;5060363;28;19916;-80
2022/10/24 06:52:00;;;;;;;;;;;20.20;99.90;;;;;;5053879;28;19913;-80
2022/10/24 06:54:26;;;;;;;;;;;20.20;99.90;;;;;;5050141;28;19920;-79
2022/10/24 06:56:52;;;;;;;;;;;20.20;99.90;;;;;;5044558;28;20004;-78
2022/10/24 06:59:17;;;;;;;;;;;20.20;99.90;;;;;;5056578;28;20343;-79
2022/10/24 07:01:47;;;;;;;;;;;20.30;99.90;;;;;;5056614;28;19966;-78
2022/10/24 07:04:25;;;;;;;;;;;20.40;99.90;;;;;;5055061;28;19912;-78
2022/10/24 07:07:00;;;;;;;;;;;20.50;99.90;;;;;;5056402;28;19920;-79
2022/10/24 07:09:34;;;;;;;;;;;20.50;99.90;;;;;;5056158;28;19908;-78
2022/10/24 07:12:08;;;;;;;;;;;20.50;99.90;;;;;;5037338;28;20358;-79
2022/10/24 07:14:34;;;;;;;;;;;20.50;99.90;;;;;;5042752;28;20326;-78
2022/10/24 07:17:00;;;;;;;;;;;20.50;99.90;;;;;;5060905;28;19991;-79
2022/10/24 07:19:26;;;;;;;;;;;20.60;99.90;;;;;;5058102;28;19913;-80
2022/10/24 07:21:52;;;;;;;;;;;20.60;99.90;;;;;;5062686;28;19994;-79
2022/10/24 07:24:20;;;;;;;;;;;20.60;99.90;;;;;;5078489;28;19916;-82
2022/10/24 07:26:49;;;;;;;;;;;20.80;99.90;;;;;;5076393;28;19916;-80
2022/10/24 07:29:14;;;;;;;;;;;20.80;99.90;;;;;;5038944;28;19909;-79
2022/10/24 07:31:40;;;;;;;;;;;20.80;99.90;;;;;;5037683;28;19909;-78
2022/10/24 07:34:08;;;;;;;;;;;20.80;99.90;;;;;;5054863;28;19913;-79
2022/10/24 07:36:37;;;;;;;;;;;20.90;99.90;;;;;;5061236;28;20016;-77
2022/10/24 07:39:02;;;;;;;;;;;20.80;99.90;;;;;;5062981;28;19962;-79
2022/10/24 07:41:29;;;;;;;;;;;20.80;99.90;;;;;;5054404;28;19913;-79
2022/10/24 07:43:56;;;;;;;;;;;20.70;99.90;;;;;;5050250;28;19923;-79
2022/10/24 07:46:22;;;;;;;;;;;20.80;99.90;;;;;;5054960;28;19927;-78
2022/10/24 07:48:49;;;;;;;;;;;20.80;99.90;;;;;;5055639;28;19920;-78
2022/10/24 07:51:15;;;;;;;;;;;20.90;99.90;;;;;;5050999;28;19935;-77
2022/10/24 07:53:41;;;;;;;;;;;21.00;99.90;;;;;;5055110;28;20290;-77
2022/10/24 07:56:10;;;;;;;;;;;21.00;99.90;;;;;;5055943;28;19913;-78
2022/10/24 07:58:36;;;;;;;;;;;21.10;99.90;;;;;;5057135;28;19909;-77
2022/10/24 08:01:06;;;;;;;;;;;21.20;99.90;;;;;;5052230;28;20534;-77
2022/10/24 08:03:32;;;;;;;;;;;21.30;99.90;;;;;;5053023;28;20007;-77
2022/10/24 08:05:58;;;;;;;;;;;21.40;99.90;;;;;;5048143;28;19975;-76
2022/10/24 08:08:24;;;;;;;;;;;21.50;99.90;;;;;;5053609;28;19951;-78
2022/10/24 08:10:50;;;;;;;;;;;21.60;99.90;;;;;;5052257;28;19913;-76
2022/10/24 08:13:16;;;;;;;;;;;21.70;99.90;;;;;;5052022;28;19920;-77
2022/10/24 08:15:42;;;;;;;;;;;21.80;99.90;;;;;;5054033;28;19999;-77
2022/10/24 08:18:08;;;;;;;;;;;21.80;99.90;;;;;;5052395;28;19960;-74
2022/10/24 08:20:37;;;;;;;;;;;21.90;99.90;;;;;;5034819;28;19909;-75
2022/10/24 08:23:02;;;;;;;;;;;22.00;99.90;;;;;;5059480;28;19920;-75
2022/10/24 08:25:28;;;;;;;;;;;22.00;99.90;;;;;;5065271;28;19916;-75
2022/10/24 08:27:54;;;;;;;;;;;22.00;99.90;;;;;;5053024;28;19916;-75
2022/10/24 08:30:20;;;;;;;;;;;21.90;99.90;;;;;;5045932;28;19939;-75
2022/10/24 08:32:46;;;;;;;;;;;21.90;99.90;;;;;;5052680;28;19913;-76
2022/10/24 08:35:16;;;;;;;;;;;21.90;99.90;;;;;;5053033;28;19913;-76
2022/10/24 08:37:42;;;;;;;;;;;21.80;99.90;;;;;;5054178;28;19999;-79
2022/10/24 08:40:11;;;;;;;;;;;21.90;99.90;;;;;;5051167;28;19963;-76
2022/10/24 08:42:37;;;;;;;;;;;21.90;99.90;;;;;;5052166;28;19913;-76
2022/10/24 08:45:08;;;;;;;;;;;21.90;99.90;;;;;;5051372;28;20359;-77
2022/10/24 08:47:40;;;;;;;;;;;21.80;99.90;;;;;;5050289;28;19967;-77
2022/10/24 08:50:12;;;;;;;;;;;21.80;99.90;;;;;;5056894;28;19913;-78
2022/10/24 08:52:43;;;;;;;;;;;21.90;99.90;;;;;;5056776;28;19913;-77
2022/10/24 08:55:13;;;;;;;;;;;21.90;99.90;;;;;;5050033;28;19913;-75
2022/10/24 08:57:42;;;;;;;;;;;22.00;99.90;;;;;;5047777;28;19919;-75
2022/10/24 09:00:30;;;;;;;;;;;22.10;99.90;;;;;;5050887;28;19923;-76
2022/10/24 09:03:05;;;;;;;;;;;22.20;99.90;;;;;;5047316;28;19940;-74
2022/10/24 09:05:37;;;;;;;;;;;22.20;99.90;;;;;;5052043;28;20438;-78
2022/10/24 09:08:12;;;;;;;;;;;22.10;99.90;;;;;;5047560;28;19924;-75
2022/10/24 09:10:44;;;;;;;;;;;22.20;99.90;;;;;;5045720;28;19931;-75
2022/10/24 09:13:14;;;;;;;;;;;22.20;99.90;;;;;;5048328;28;20363;-75
2022/10/24 09:15:40;;;;;;;;;;;22.30;99.90;;;;;;5051938;28;19912;-75
2022/10/24 09:18:13;;;;;;;;;;;22.50;99.90;;;;;;5053435;28;20015;-74
2022/10/24 09:20:39;;;;;;;;;;;22.70;99.90;;;;;;5052011;28;20084;-74
2022/10/24 09:23:05;;;;;;;;;;;22.90;99.90;;;;;;5053568;28;19908;-74
2022/10/24 09:25:33;;;;;;;;;;;23.00;99.90;;;;;;5052220;28;19921;-74
2022/10/24 09:28:03;;;;;;;;;;;23.20;99.90;;;;;;5047002;28;19960;-74
2022/10/24 09:30:29;;;;;;;;;;;23.40;99.90;;;;;;5051721;28;19966;-74
2022/10/24 09:32:56;;;;;;;;;;;23.60;99.90;;;;;;5051810;28;19917;-74
2022/10/24 09:35:23;;;;;;;;;;;23.80;99.90;;;;;;5051458;28;20290;-74
2022/10/24 09:37:57;;;;;;;;;;;24.00;99.90;;;;;;5052968;28;19913;-74
2022/10/24 09:40:28;;;;;;;;;;;24.00;99.90;;;;;;5051850;28;19920;-75
2022/10/24 09:43:06;;;;;;;;;;;24.00;99.90;;;;;;5051499;28;19913;-78
2022/10/24 09:45:39;;;;;;;;;;;24.00;99.90;;;;;;5048619;28;19991;-77
2022/10/24 09:48:14;;;;;;;;;;;24.00;99.90;;;;;;5054479;28;19913;-76
2022/10/24 09:50:49;;;;;;;;;;;24.10;99.90;;;;;;5052755;28;20448;-78
2022/10/24 09:53:20;;;;;;;;;;;24.20;99.90;;;;;;5045887;28;19917;-75
2022/10/24 09:55:51;;;;;;;;;;;24.30;99.90;;;;;;5052433;28;19913;-74
2022/10/24 09:58:19;;;;;;;;;;;24.40;99.90;;;;;;5049425;28;19913;-74
2022/10/24 10:00:55;;;;;;;;;;;24.40;99.90;;;;;;5054130;28;20252;-74
2022/10/24 10:03:21;;;;;;;;;;;24.40;99.90;;;;;;5035624;28;19909;-73
2022/10/24 10:05:48;;;;;;;;;;;24.50;99.90;;;;;;5051001;28;19922;-73
2022/10/24 10:08:31;;;;;;;;;;;24.50;99.90;;;;;;5052361;28;20399;-74
2022/10/24 10:11:12;;;;;;;;;;;24.50;99.90;;;;;;5052957;28;19971;-73
2022/10/24 10:13:59;;;;;;;;;;;24.60;99.90;;;;;;5052321;28;19999;-74
2022/10/24 10:16:27;;;;;;;;;;;24.60;99.90;;;;;;5049815;28;19920;-74
2022/10/24 10:19:01;;;;;;;;;;;24.60;99.90;;;;;;5055498;28;19913;-75
2022/10/24 10:21:27;;;;;;;;;;;24.50;99.90;;;;;;5056497;28;19909;-74
2022/10/24 10:24:00;;;;;;;;;;;24.40;99.90;;;;;;5053657;28;20367;-74
2022/10/24 10:26:40;;;;;;;;;;;24.30;99.90;;;;;;5055736;28;20282;-73
2022/10/24 10:29:18;;;;;;;;;;;24.20;99.90;;;;;;5063386;28;19924;-74
2022/10/24 10:31:48;;;;;;;;;;;24.00;99.90;;;;;;5059129;28;19919;-74
2022/10/24 10:34:14;;;;;;;;;;;23.90;99.90;;;;;;5052435;28;19940;-74
2022/10/24 10:36:59;;;;;;;;;;;23.70;99.90;;;;;;5050567;28;20378;-74
2022/10/24 10:39:37;;;;;;;;;;;23.80;99.90;;;;;;5044786;28;19908;-74
2022/10/24 10:42:11;;;;;;;;;;;23.70;99.90;;;;;;5053908;28;19928;-74
2022/10/24 10:44:47;;;;;;;;;;;23.70;99.90;;;;;;5055929;28;20325;-75
2022/10/24 10:47:39;;;;;;;;;;;23.70;99.90;;;;;;5052635;28;19916;-74
2022/10/24 10:50:23;;;;;;;;;;;23.80;99.90;;;;;;5056357;28;19967;-75
2022/10/24 10:52:49;;;;;;;;;;;23.70;99.90;;;;;;5047562;28;19944;-74
2022/10/24 10:55:15;;;;;;;;;;;23.70;99.90;;;;;;5055882;28;19971;-74
2022/10/24 10:58:07;;;;;;;;;;;23.60;99.90;;;;;;5056305;28;19916;-74
2022/10/24 11:00:36;;;;;;;;;;;23.60;99.90;;;;;;5047332;28;19909;-74
2022/10/24 11:03:35;;;;;;;;;;;23.70;99.90;;;;;;5047173;28;19913;-74
2022/10/24 11:06:12;;;;;;;;;;;23.80;99.90;;;;;;5043187;28;19913;-73
2022/10/24 11:08:49;;;;;;;;;;;24.20;99.90;;;;;;5056178;28;20333;-74
2022/10/24 11:11:16;;;;;;;;;;;24.60;99.90;;;;;;5050831;28;19920;-74
2022/10/24 11:13:46;;;;;;;;;;;24.90;99.90;;;;;;5050545;28;19909;-75
2022/10/24 11:16:18;;;;;;;;;;;25.00;99.90;;;;;;5050260;28;20409;-74
2022/10/24 11:18:45;;;;;;;;;;;25.20;99.90;;;;;;5048656;28;19913;-73
2022/10/24 11:21:12;;;;;;;;;;;25.30;99.90;;;;;;5055360;28;20410;-74
2022/10/24 11:23:42;;;;;;;;;;;25.20;99.90;;;;;;5054107;28;19913;-75
2022/10/24 11:26:10;;;;;;;;;;;25.00;99.90;;;;;;5053018;28;19909;-76
2022/10/24 11:29:05;;;;;;;;;;;25.20;99.90;;;;;;5058913;28;19905;-85
2022/10/24 11:31:42;;;;;;;;;;;25.20;99.90;;;;;;5059766;28;19915;-83
2022/10/24 11:34:13;;;;;;;;;;;25.00;99.90;;;;;;5056337;28;20123;-78
2022/10/24 11:36:46;;;;;;;;;;;25.00;99.90;;;;;;5049167;28;19984;-77
2022/10/24 11:39:21;;;;;;;;;;;24.80;99.90;;;;;;5053745;28;20028;-76
2022/10/24 11:42:05;;;;;;;;;;;24.70;99.90;;;;;;5054631;28;20002;-76
2022/10/24 11:44:36;;;;;;;;;;;24.70;99.90;;;;;;5046260;28;19913;-74
2022/10/24 11:47:29;;;;;;;;;;;24.60;99.90;;;;;;5051149;28;20334;-72
2022/10/24 11:50:14;;;;;;;;;;;24.50;99.90;;;;;;5045467;28;19912;-74
2022/10/24 11:52:47;;;;;;;;;;;24.20;99.90;;;;;;5048184;28;19916;-74
2022/10/24 11:55:36;;;;;;;;;;;24.20;99.90;;;;;;5065828;28;19913;-73
2022/10/24 11:58:04;;;;;;;;;;;24.20;99.90;;;;;;5054181;28;19937;-73
2022/10/24 12:00:32;;;;;;;;;;;24.20;99.90;;;;;;5052955;28;19924;-75
2022/10/24 12:03:13;;;;;;;;;;;24.20;99.90;;;;;;5053069;28;19917;-75
2022/10/24 12:05:42;;;;;;;;;;;24.10;99.90;;;;;;5049233;28;19944;-75
2022/10/24 12:08:22;;;;;;;;;;;24.10;99.90;;;;;;5047855;28;19932;-76
2022/10/24 12:11:00;;;;;;;;;;;23.80;99.90;;;;;;5047514;28;19955;-75
2022/10/24 12:13:32;;;;;;;;;;;23.70;99.90;;;;;;5054571;28;19920;-75
2022/10/24 12:16:20;;;;;;;;;;;23.70;99.90;;;;;;5046175;28;20141;-74
2022/10/24 12:18:51;;;;;;;;;;;23.60;99.90;;;;;;5050825;28;20402;-75
2022/10/24 12:21:19;;;;;;;;;;;23.50;99.90;;;;;;5051554;28;19917;-75
2022/10/24 12:23:53;;;;;;;;;;;23.40;99.90;;;;;;5052861;28;20027;-77
2022/10/24 12:26:20;;;;;;;;;;;23.30;99.90;;;;;;5049283;28;20298;-76
2022/10/24 12:28:55;;;;;;;;;;;23.10;99.90;;;;;;5054887;28;19905;-76
2022/10/24 12:31:35;;;;;;;;;;;;;;;;;;;;;
2022/10/24 12:34:21;;;;;;;;;;;22.90;99.90;;;;;;5047110;28;19919;-74
2022/10/24 12:37:00;;;;;;;;;;;22.90;99.90;;;;;;5050281;28;19917;-74
2022/10/24 12:39:33;;;;;;;;;;;22.60;99.90;;;;;;5044000;28;19947;-74
2022/10/24 12:41:59;;;;;;;;;;;22.50;99.90;;;;;;5047477;28;19914;-76
2022/10/24 12:48:01;;;;;;;;;;;22.50;99.90;;;;;;5052052;28;19919;-77
2022/10/24 12:50:48;;;;;;;;;;;22.50;99.90;;;;;;5044935;28;19917;-79
2022/10/24 12:54:09;;;;;;;;;;;;;;;;;;;;;
2022/10/24 13:03:30;;;;;;;;;;;;;;;;;;;;;
2022/10/24 13:21:25;;;;;;;;;;;22.30;99.90;;;;;;5053235;28;19919;-75
2022/10/24 13:23:51;;;;;;;;;;;22.20;99.90;;;;;;5052762;28;19919;-74
2022/10/24 13:26:38;;;;;;;;;;;22.10;99.90;;;;;;5045917;28;19913;-75
2022/10/24 13:32:17;;;;;;;;;;;22.10;99.90;;;;;;5053179;28;19927;-73
2022/10/24 13:34:49;;;;;;;;;;;22.10;99.90;;;;;;5048870;28;19913;-73
2022/10/24 13:37:20;;;;;;;;;;;22.20;99.90;;;;;;5052557;28;20031;-74
2022/10/24 13:39:50;;;;;;;;;;;22.10;99.90;;;;;;5053901;28;19917;-73
2022/10/24 13:42:24;;;;;;;;;;;22.10;99.90;;;;;;5048279;28;19912;-75
2022/10/24 13:44:52;;;;;;;;;;;22.10;99.90;;;;;;5055275;28;19920;-72
2022/10/24 13:47:20;;;;;;;;;;;22.10;99.90;;;;;;5056356;28;20293;-72
2022/10/24 13:49:52;;;;;;;;;;;22.10;99.90;;;;;;5056079;28;19919;-73
2022/10/24 13:52:23;;;;;;;;;;;22.10;99.90;;;;;;5048282;28;19920;-72
2022/10/24 13:54:53;;;;;;;;;;;22.20;99.90;;;;;;5054382;28;19913;-72
2022/10/24 13:57:26;;;;;;;;;;;22.20;99.90;;;;;;5056695;28;20397;-72
2022/10/24 13:59:53;;;;;;;;;;;22.30;99.90;;;;;;5056336;28;19967;-72
2022/10/24 14:02:21;;;;;;;;;;;22.30;99.90;;;;;;5056122;28;19912;-72
2022/10/24 14:04:48;;;;;;;;;;;22.40;99.90;;;;;;5054920;28;20499;-73
2022/10/24 14:07:19;;;;;;;;;;;22.40;99.90;;;;;;5055631;28;20334;-72
2022/10/24 14:09:49;;;;;;;;;;;22.40;99.90;;;;;;5054640;28;19913;-72
2022/10/24 14:12:20;;;;;;;;;;;22.50;99.90;;;;;;5069105;28;20478;-72
2022/10/24 14:14:47;;;;;;;;;;;22.60;99.90;;;;;;5047576;28;19913;-73
2022/10/24 14:17:16;;;;;;;;;;;22.70;99.90;;;;;;5056144;28;19951;-75
2022/10/24 14:19:52;;;;;;;;;;;22.80;99.90;;;;;;5054688;28;19959;-74
2022/10/24 14:22:20;;;;;;;;;;;22.80;99.90;;;;;;5069662;28;19913;-74
2022/10/24 14:24:47;;;;;;;;;;;22.90;99.90;;;;;;5054827;28;19909;-74
2022/10/24 14:27:13;;;;;;;;;;;22.70;99.90;;;;;;5054437;28;20009;-73
2022/10/24 14:29:38;;;;;;;;;;;22.70;99.90;;;;;;5055708;28;19998;-75
2022/10/24 14:32:08;;;;;;;;;;;22.70;99.90;;;;;;5049355;28;19920;-76
2022/10/24 14:34:35;;;;;;;;;;;22.60;99.90;;;;;;5056015;28;19917;-75
2022/10/24 14:37:04;;;;;;;;;;;22.60;99.90;;;;;;5054844;28;19913;-74
2022/10/24 14:39:29;;;;;;;;;;;22.60;99.90;;;;;;5051673;28;19913;-73
2022/10/24 14:41:57;;;;;;;;;;;22.60;99.90;;;;;;5054600;28;19967;-74
2022/10/24 14:44:23;;;;;;;;;;;22.40;99.90;;;;;;5054167;28;19920;-75
2022/10/24 14:47:15;;;;;;;;;;;22.40;99.90;;;;;;5048132;28;20015;-74
2022/10/24 14:49:41;;;;;;;;;;;22.30;99.90;;;;;;5052758;28;19970;-74
2022/10/24 14:52:09;;;;;;;;;;;22.20;99.90;;;;;;5054244;28;20513;-74
2022/10/24 14:54:34;;;;;;;;;;;22.10;99.90;;;;;;5053785;28;19924;-73
2022/10/24 14:57:01;;;;;;;;;;;22.00;99.90;;;;;;5055329;28;19917;-74
2022/10/24 14:59:29;;;;;;;;;;;21.90;99.90;;;;;;5054306;28;20345;-74
2022/10/24 15:02:03;;;;;;;;;;;21.90;99.90;;;;;;5052203;28;19916;-74
2022/10/24 15:04:40;;;;;;;;;;;21.80;99.90;;;;;;5052795;28;20041;-73
2022/10/24 15:07:15;;;;;;;;;;;21.80;99.90;;;;;;5053407;28;19928;-73